createdAt,value
2023-05-08T00:00:25.471Z,92205.25
2023-05-08T00:02:57.901Z,92200.38
2023-05-08T00:05:30.349Z,92205.88
2023-05-08T00:08:02.858Z,92205.66
2023-05-08T00:10:35.332Z,92201.50
2023-05-08T00:13:07.673Z,92195.88
2023-05-08T00:15:40.668Z,92202.16
2023-05-08T00:18:13.051Z,92204.69
2023-05-08T00:20:45.405Z,92203.22
2023-05-08T00:23:17.745Z,92210.00
2023-05-08T00:25:50.078Z,92219.16
2023-05-08T00:28:22.437Z,92211.94
2023-05-08T00:30:55.465Z,92217.81
2023-05-08T00:33:28.270Z,92218.88
2023-05-08T00:36:01.520Z,92218.03
2023-05-08T00:38:34.842Z,92210.84
2023-05-08T00:41:07.197Z,92216.25
2023-05-08T00:43:39.533Z,92218.66
2023-05-08T00:46:13.312Z,92212.19
2023-05-08T00:48:46.703Z,92212.50
2023-05-08T00:51:19.166Z,92213.94
2023-05-08T00:53:51.583Z,92222.44
2023-05-08T00:56:24.642Z,92225.31
2023-05-08T00:58:57.084Z,92221.75
2023-05-08T01:01:32.545Z,92222.72
2023-05-08T01:04:05.570Z,92229.66
2023-05-08T01:06:37.986Z,92223.56
2023-05-08T01:09:10.857Z,92226.16
2023-05-08T01:11:49.497Z,92230.59
2023-05-08T01:14:36.862Z,92224.13
2023-05-08T01:17:16.492Z,92231.94
2023-05-08T01:20:05.470Z,92234.63
2023-05-08T01:23:10.818Z,92225.47
2023-05-08T01:26:08.107Z,92228.72
2023-05-08T01:29:17.621Z,92225.44
2023-05-08T01:32:18.433Z,92222.84
2023-05-08T01:34:58.653Z,92228.41
2023-05-08T01:37:38.114Z,92219.91
2023-05-08T01:40:17.581Z,92222.22
2023-05-08T01:42:54.400Z,92220.66
2023-05-08T01:45:34.917Z,92211.59
2023-05-08T01:48:13.045Z,92218.56
2023-05-08T01:50:48.243Z,92214.41
2023-05-08T01:53:23.951Z,92217.38
2023-05-08T01:56:00.423Z,92213.03
2023-05-08T01:58:35.057Z,92214.38
2023-05-08T02:01:08.515Z,92208.09
2023-05-08T02:03:43.361Z,92213.03
2023-05-08T02:06:19.609Z,92206.47
2023-05-08T02:08:53.358Z,92215.13
2023-05-08T02:11:26.210Z,92200.03
2023-05-08T02:14:00.892Z,92214.25
2023-05-08T02:16:34.073Z,92213.47
2023-05-08T02:19:09.098Z,92210.22
2023-05-08T02:21:42.722Z,92213.47
2023-05-08T02:24:15.934Z,92211.91
2023-05-08T02:26:49.812Z,92215.31
2023-05-08T02:29:23.440Z,92210.84
2023-05-08T02:31:57.768Z,92211.13
2023-05-08T02:34:32.224Z,92212.91
2023-05-08T02:37:05.671Z,92223.25
2023-05-08T02:39:41.248Z,92222.53
2023-05-08T02:42:14.368Z,92212.41
2023-05-08T02:44:46.835Z,92221.06
2023-05-08T02:47:23.593Z,92227.06
2023-05-08T02:50:03.597Z,92220.56
2023-05-08T02:52:42.680Z,92223.19
2023-05-08T02:55:26.311Z,92222.88
2023-05-08T02:58:07.794Z,92214.31
2023-05-08T03:00:47.367Z,92212.78
2023-05-08T03:03:25.093Z,92213.47
2023-05-08T03:06:02.351Z,92214.03
2023-05-08T03:08:35.504Z,92211.78
2023-05-08T03:11:11.679Z,92198.44
2023-05-08T03:13:46.753Z,92222.97
2023-05-08T03:16:23.299Z,92220.50
2023-05-08T03:18:59.665Z,92217.78
2023-05-08T03:21:33.820Z,92218.31
2023-05-08T03:24:09.418Z,92224.00
2023-05-08T03:26:42.520Z,92220.06
2023-05-08T03:29:16.609Z,92224.72
2023-05-08T03:31:51.027Z,92228.31
2023-05-08T03:34:24.254Z,92227.81
2023-05-08T03:36:57.945Z,92217.59
2023-05-08T03:39:30.514Z,92228.44
2023-05-08T03:42:03.019Z,92222.47
2023-05-08T03:44:36.306Z,92222.47
2023-05-08T03:47:10.353Z,92220.63
2023-05-08T03:49:45.013Z,92221.31
2023-05-08T03:52:18.080Z,92225.25
2023-05-08T03:54:50.917Z,92221.88
2023-05-08T03:57:30.515Z,92230.75
2023-05-08T04:00:09.387Z,92225.53
2023-05-08T04:02:56.257Z,92230.13
2023-05-08T04:05:41.163Z,92232.66
2023-05-08T04:08:22.229Z,92232.66
2023-05-08T04:11:04.013Z,92237.56
2023-05-08T04:13:43.089Z,92242.41
2023-05-08T04:16:21.579Z,92235.38
2023-05-08T04:19:00.955Z,92227.38
2023-05-08T04:21:35.083Z,92232.44
2023-05-08T04:24:12.198Z,92227.34
2023-05-08T04:26:45.585Z,92236.06
2023-05-08T04:29:19.266Z,92228.63
2023-05-08T04:31:52.917Z,92233.75
2023-05-08T04:34:25.757Z,92225.84
2023-05-08T04:36:58.876Z,92231.81
2023-05-08T04:39:31.920Z,92237.31
2023-05-08T04:42:04.934Z,92233.16
2023-05-08T04:44:39.896Z,92231.16
2023-05-08T04:47:12.516Z,92227.97
2023-05-08T04:49:45.160Z,92233.66
2023-05-08T04:52:17.891Z,92231.94
2023-05-08T04:54:50.957Z,92223.56
2023-05-08T04:57:23.531Z,92221.78
2023-05-08T04:59:56.555Z,92223.13
2023-05-08T05:02:29.520Z,92226.34
2023-05-08T05:05:02.639Z,92223.13
2023-05-08T05:07:36.654Z,92223.66
2023-05-08T05:10:10.707Z,92188.63
2023-05-08T05:12:43.213Z,92214.91
2023-05-08T05:15:15.689Z,92207.41
2023-05-08T05:17:48.851Z,92208.31
2023-05-08T05:20:21.322Z,92201.91
2023-05-08T05:22:53.824Z,92203.53
2023-05-08T05:25:26.937Z,92209.91
2023-05-08T05:27:59.393Z,92215.78
2023-05-08T05:30:32.827Z,92207.69
2023-05-08T05:33:05.316Z,92202.47
2023-05-08T05:35:37.813Z,92207.25
2023-05-08T05:38:10.239Z,92206.31
2023-05-08T05:40:43.372Z,92213.88
2023-05-08T05:43:15.739Z,92208.34
2023-05-08T05:45:48.232Z,92211.28
2023-05-08T05:48:20.610Z,92213.13
2023-05-08T05:50:52.928Z,92202.97
2023-05-08T05:53:25.645Z,92206.19
2023-05-08T05:55:58.995Z,92209.88
2023-05-08T05:58:31.454Z,92205.81
2023-05-08T06:01:04.564Z,92206.84
2023-05-08T06:03:37.393Z,92210.00
2023-05-08T06:06:10.551Z,92204.03
2023-05-08T06:08:42.858Z,92200.56
2023-05-08T06:11:15.883Z,92205.41
2023-05-08T06:13:50.499Z,92197.78
2023-05-08T06:16:24.322Z,92200.84
2023-05-08T06:18:56.642Z,92198.28
2023-05-08T06:21:30.549Z,92196.50
2023-05-08T06:24:03.094Z,92203.28
2023-05-08T06:26:36.048Z,92207.19
2023-05-08T06:29:08.511Z,92207.22
2023-05-08T06:31:40.804Z,92204.69
2023-05-08T06:34:13.317Z,92212.59
2023-05-08T06:36:45.644Z,92211.50
2023-05-08T06:39:18.006Z,92214.03
2023-05-08T06:41:51.015Z,92219.81
2023-05-08T06:44:31.807Z,92212.47
2023-05-08T06:47:04.223Z,92217.28
2023-05-08T06:49:36.699Z,92210.88
2023-05-08T06:52:08.996Z,92213.16
2023-05-08T06:54:41.410Z,92223.94
2023-05-08T06:57:15.480Z,92218.16
2023-05-08T06:59:47.827Z,92222.09
2023-05-08T07:02:20.199Z,92231.28
2023-05-08T07:04:52.578Z,92230.38
2023-05-08T07:07:24.946Z,92233.84
2023-05-08T07:09:57.294Z,92228.72
2023-05-08T07:12:30.341Z,92230.19
2023-05-08T07:15:13.748Z,92233.34
2023-05-08T07:17:50.534Z,92224.56
2023-05-08T07:20:23.642Z,92234.28
2023-05-08T07:22:56.520Z,92227.72
2023-05-08T07:25:28.889Z,92226.84
2023-05-08T07:28:01.948Z,92227.78
2023-05-08T07:30:34.297Z,92229.28
2023-05-08T07:33:06.900Z,92242.06
2023-05-08T07:35:40.227Z,92233.94
2023-05-08T07:38:12.568Z,92236.16
2023-05-08T07:40:45.212Z,92237.19
2023-05-08T07:43:18.207Z,92234.47
2023-05-08T07:45:51.332Z,92238.81
2023-05-08T07:48:23.637Z,92237.34
2023-05-08T07:50:56.265Z,92235.56
2023-05-08T07:53:28.679Z,92240.44
2023-05-08T07:56:01.832Z,92243.00
2023-05-08T07:58:34.789Z,92237.44
2023-05-08T08:01:07.121Z,92248.25
2023-05-08T08:03:39.564Z,92251.44
2023-05-08T08:06:12.099Z,92254.63
2023-05-08T08:08:44.607Z,92255.47
2023-05-08T08:11:17.031Z,92256.19
2023-05-08T08:13:50.055Z,92252.06
2023-05-08T08:16:22.699Z,92259.41
2023-05-08T08:18:55.079Z,92257.69
2023-05-08T08:21:27.886Z,92258.00
2023-05-08T08:24:00.265Z,92263.34
2023-05-08T08:26:32.753Z,92253.34
2023-05-08T08:29:06.092Z,92262.81
2023-05-08T08:31:38.450Z,92273.06
2023-05-08T08:34:10.875Z,92257.28
2023-05-08T08:36:43.199Z,92264.53
2023-05-08T08:39:15.552Z,92266.84
2023-05-08T08:41:47.923Z,92264.41
2023-05-08T08:44:20.982Z,92257.44
2023-05-08T08:46:53.821Z,92263.28
2023-05-08T08:49:30.582Z,92265.63
2023-05-08T08:52:11.109Z,92262.13
2023-05-08T08:54:45.354Z,92249.56
2023-05-08T08:57:19.847Z,92249.53
2023-05-08T08:59:54.373Z,92251.91
2023-05-08T09:02:29.339Z,92247.28
2023-05-08T09:05:02.750Z,92243.41
2023-05-08T09:07:37.161Z,92234.78
2023-05-08T09:10:14.617Z,92235.22
2023-05-08T09:12:48.308Z,92228.97
2023-05-08T09:15:21.588Z,92219.25
2023-05-08T09:17:53.969Z,92214.25
2023-05-08T09:20:26.456Z,92198.47
2023-05-08T09:23:01.281Z,92194.16
2023-05-08T09:25:43.244Z,92193.94
2023-05-08T09:28:16.966Z,92196.16
2023-05-08T09:30:51.397Z,92190.50
2023-05-08T09:33:25.508Z,92196.03
2023-05-08T09:35:58.134Z,92202.81
2023-05-08T09:38:37.968Z,92204.09
2023-05-08T09:41:11.882Z,92207.09
2023-05-08T09:43:59.524Z,92204.94
2023-05-08T09:46:33.729Z,92218.72
2023-05-08T09:49:06.083Z,92219.41
2023-05-08T09:51:50.864Z,92223.06
2023-05-08T09:54:23.449Z,92214.16
2023-05-08T09:56:55.862Z,92215.06
2023-05-08T09:59:33.356Z,92219.00
2023-05-08T10:02:11.978Z,92215.78
2023-05-08T10:04:44.361Z,92216.53
2023-05-08T10:07:26.537Z,92215.00
2023-05-08T10:09:59.905Z,92214.84
2023-05-08T10:12:34.226Z,92205.47
2023-05-08T10:15:08.022Z,92204.59
2023-05-08T10:17:49.709Z,92202.00
2023-05-08T10:20:28.848Z,92198.66
2023-05-08T10:23:02.915Z,92197.28
2023-05-08T10:25:36.683Z,92192.94
2023-05-08T10:28:16.060Z,92193.34
2023-05-08T10:30:48.780Z,92196.16
2023-05-08T10:33:30.973Z,92190.94
2023-05-08T10:36:04.857Z,92191.63
2023-05-08T10:38:37.597Z,92192.09
2023-05-08T10:41:10.688Z,92186.91
2023-05-08T10:43:43.464Z,92185.19
2023-05-08T10:46:22.254Z,92181.66
2023-05-08T10:49:00.994Z,92180.41
2023-05-08T10:51:43.964Z,92179.00
2023-05-08T10:54:21.330Z,92179.41
2023-05-08T10:57:08.128Z,92180.44
2023-05-08T10:59:45.069Z,92179.03
2023-05-08T11:02:28.016Z,92178.28
2023-05-08T11:05:15.361Z,92175.38
2023-05-08T11:07:55.466Z,92150.25
2023-05-08T11:10:30.666Z,92147.31
2023-05-08T11:13:05.159Z,92150.81
2023-05-08T11:15:38.491Z,92150.97
2023-05-08T11:18:11.038Z,92142.84
2023-05-08T11:20:57.731Z,92134.31
2023-05-08T11:23:30.867Z,92127.63
2023-05-08T11:26:04.692Z,92128.09
2023-05-08T11:28:38.190Z,92124.66
2023-05-08T11:31:10.646Z,92120.69
2023-05-08T11:33:43.036Z,92114.75
2023-05-08T11:36:18.498Z,92114.75
2023-05-08T11:39:06.969Z,92107.72
2023-05-08T11:41:40.296Z,92105.13
2023-05-08T11:44:19.638Z,92083.19
2023-05-08T11:46:53.924Z,92086.94
2023-05-08T11:49:29.732Z,92086.47
2023-05-08T11:52:05.276Z,92090.44
2023-05-08T11:54:37.678Z,92089.66
2023-05-08T11:57:10.308Z,92087.00
2023-05-08T11:59:42.955Z,92092.47
2023-05-08T12:02:15.326Z,92085.03
2023-05-08T12:04:47.911Z,92094.19
2023-05-08T12:07:21.334Z,92095.59
2023-05-08T12:09:53.679Z,92097.41
2023-05-08T12:12:36.484Z,92089.03
2023-05-08T12:15:10.163Z,92107.69
2023-05-08T12:17:42.738Z,92110.19
2023-05-08T12:20:16.851Z,92106.06
2023-05-08T12:22:51.757Z,92107.63
2023-05-08T12:25:25.641Z,92105.75
2023-05-08T12:27:59.198Z,92094.28
2023-05-08T12:30:31.723Z,92093.59
2023-05-08T12:33:13.361Z,92097.41
2023-05-08T12:35:45.915Z,92100.06
2023-05-08T12:38:18.929Z,92106.13
2023-05-08T12:40:52.316Z,92101.88
2023-05-08T12:43:31.741Z,92098.69
2023-05-08T12:46:04.584Z,92091.81
2023-05-08T12:48:36.952Z,92088.59
2023-05-08T12:51:11.327Z,92088.56
2023-05-08T12:53:46.234Z,92081.31
2023-05-08T12:56:22.096Z,92081.25
2023-05-08T12:58:58.874Z,92082.47
2023-05-08T13:01:31.216Z,92071.91
2023-05-08T13:04:07.501Z,92073.50
2023-05-08T13:06:39.965Z,92073.78
2023-05-08T13:09:18.490Z,92072.94
2023-05-08T13:11:50.939Z,92078.09
2023-05-08T13:14:23.279Z,92074.75
2023-05-08T13:16:55.984Z,92079.22
2023-05-08T13:19:28.450Z,92079.53
2023-05-08T13:22:00.877Z,92075.94
2023-05-08T13:24:33.865Z,92073.56
2023-05-08T13:27:06.138Z,92079.19
2023-05-08T13:29:38.464Z,92073.38
2023-05-08T13:32:10.938Z,92077.19
2023-05-08T13:34:49.698Z,92090.34
2023-05-08T13:37:23.324Z,92090.34
2023-05-08T13:39:56.297Z,92097.06
2023-05-08T13:42:28.613Z,92101.00
2023-05-08T13:45:01.231Z,92111.41
2023-05-08T13:47:34.237Z,92109.16
2023-05-08T13:50:07.692Z,92123.66
2023-05-08T13:52:40.920Z,92103.34
2023-05-08T13:55:14.066Z,92116.78
2023-05-08T13:57:47.207Z,92123.94
2023-05-08T14:00:20.038Z,92118.06
2023-05-08T14:02:53.275Z,92120.00
2023-05-08T14:05:25.810Z,92126.25
2023-05-08T14:07:58.142Z,92126.97
2023-05-08T14:10:31.164Z,92134.47
2023-05-08T14:13:03.602Z,92147.19
2023-05-08T14:15:37.908Z,92146.81
2023-05-08T14:18:10.386Z,92139.97
2023-05-08T14:20:46.876Z,92136.41
2023-05-08T14:23:21.357Z,92138.25
2023-05-08T14:25:54.414Z,92146.00
2023-05-08T14:28:26.726Z,92147.78
2023-05-08T14:30:59.058Z,92145.38
2023-05-08T14:33:31.381Z,92145.16
2023-05-08T14:36:03.877Z,92150.13
2023-05-08T14:38:36.510Z,92163.97
2023-05-08T14:41:09.596Z,92151.03
2023-05-08T14:43:43.130Z,92158.09
2023-05-08T14:46:15.525Z,92157.31
2023-05-08T14:48:47.924Z,92159.53
2023-05-08T14:51:20.255Z,92174.22
2023-05-08T14:53:52.667Z,92177.97
2023-05-08T14:56:26.092Z,92184.63
2023-05-08T14:58:58.372Z,92184.72
2023-05-08T15:01:30.986Z,92185.28
2023-05-08T15:04:03.558Z,92171.13
2023-05-08T15:06:36.242Z,92181.38
2023-05-08T15:09:08.926Z,92180.25
2023-05-08T15:11:42.305Z,92182.03
2023-05-08T15:14:14.710Z,92183.50
2023-05-08T15:16:47.099Z,92188.94
2023-05-08T15:19:19.895Z,92186.00
2023-05-08T15:21:52.237Z,92189.59
2023-05-08T15:24:24.658Z,92184.22
2023-05-08T15:26:57.660Z,92173.63
2023-05-08T15:29:30.063Z,92160.16
2023-05-08T15:32:02.478Z,92163.75
2023-05-08T15:34:34.889Z,92160.44
2023-05-08T15:37:07.255Z,92167.59
2023-05-08T15:39:40.647Z,92166.63
2023-05-08T15:42:13.626Z,92180.50
2023-05-08T15:47:22.356Z,92173.03
2023-05-08T15:49:54.767Z,92173.25
2023-05-08T15:52:27.087Z,92172.84
2023-05-08T15:54:59.401Z,92173.16
2023-05-08T15:57:32.492Z,92163.44
2023-05-08T16:00:06.221Z,92161.97
2023-05-08T16:02:39.356Z,92182.28
2023-05-08T16:05:11.876Z,92178.25
2023-05-08T16:07:44.399Z,92189.31
2023-05-08T16:10:16.888Z,92189.38
2023-05-08T16:12:50.072Z,92181.97
2023-05-08T16:15:22.462Z,92182.09
2023-05-08T16:17:54.861Z,92176.25
2023-05-08T16:20:27.258Z,92181.81
2023-05-08T16:22:59.654Z,92181.31
2023-05-08T16:25:32.217Z,92179.72
2023-05-08T16:28:05.356Z,92176.72
2023-05-08T16:30:37.831Z,92190.03
2023-05-08T16:33:11.862Z,92185.38
2023-05-08T16:35:44.862Z,92173.72
2023-05-08T16:38:17.956Z,92184.06
2023-05-08T16:40:50.423Z,92181.94
2023-05-08T16:43:24.029Z,92190.13
2023-05-08T16:45:59.160Z,92198.97
2023-05-08T16:48:32.259Z,92194.69
2023-05-08T16:51:04.678Z,92195.38
2023-05-08T16:53:37.075Z,92200.63
2023-05-08T16:56:10.295Z,92207.44
2023-05-08T16:58:44.208Z,92204.81
2023-05-08T17:01:16.822Z,92205.75
2023-05-08T17:03:49.999Z,92202.50
2023-05-08T17:06:23.223Z,92206.19
2023-05-08T17:08:56.501Z,92206.34
2023-05-08T17:11:29.062Z,92212.69
2023-05-08T17:14:02.849Z,92216.84
2023-05-08T17:16:35.443Z,92211.44
2023-05-08T17:19:08.669Z,92205.41
2023-05-08T17:21:41.209Z,92211.44
2023-05-08T17:24:14.280Z,92214.84
2023-05-08T17:26:46.821Z,92227.44
2023-05-08T17:29:20.591Z,92220.50
2023-05-08T17:31:53.130Z,92220.38
2023-05-08T17:34:25.765Z,92228.22
2023-05-08T17:36:58.874Z,92241.91
2023-05-08T17:39:32.191Z,92239.75
2023-05-08T17:42:05.698Z,92244.50
2023-05-08T17:44:38.923Z,92251.44
2023-05-08T17:47:11.504Z,92254.97
2023-05-08T17:49:44.586Z,92253.59
2023-05-08T17:52:17.954Z,92268.69
2023-05-08T17:54:50.612Z,92267.59
2023-05-08T17:57:23.047Z,92263.44
2023-05-08T17:59:56.112Z,92263.16
2023-05-08T18:02:29.273Z,92257.31
2023-05-08T18:05:02.220Z,92267.16
2023-05-08T18:07:34.730Z,92272.22
2023-05-08T18:10:07.987Z,92281.81
2023-05-08T18:12:40.437Z,92286.44
2023-05-08T18:15:13.689Z,92291.78
2023-05-08T18:17:46.051Z,92295.03
2023-05-08T18:20:20.379Z,92294.75
2023-05-08T18:22:52.864Z,92299.06
2023-05-08T18:25:25.188Z,92313.97
2023-05-08T18:27:58.229Z,92305.03
2023-05-08T18:30:34.440Z,92303.13
2023-05-08T18:33:06.850Z,92303.41
2023-05-08T18:35:39.258Z,92312.81
2023-05-08T18:38:11.675Z,92316.34
2023-05-08T18:40:44.034Z,92310.66
2023-05-08T18:43:16.339Z,92316.34
2023-05-08T18:45:49.343Z,92315.47
2023-05-08T18:48:21.709Z,92315.91
2023-05-08T18:50:57.600Z,92320.09
2023-05-08T18:53:30.290Z,92313.31
2023-05-08T18:56:03.144Z,92318.38
2023-05-08T18:58:35.723Z,92316.50
2023-05-08T19:01:08.815Z,92312.22
2023-05-08T19:03:41.528Z,92322.53
2023-05-08T19:06:14.134Z,92322.09
2023-05-08T19:08:46.816Z,92317.03
2023-05-08T19:11:19.215Z,92326.13
2023-05-08T19:13:51.593Z,92326.59
2023-05-08T19:16:24.706Z,92328.09
2023-05-08T19:18:57.139Z,92331.34
2023-05-08T19:21:30.828Z,92329.59
2023-05-08T19:24:03.611Z,92327.47
2023-05-08T19:26:35.979Z,92335.31
2023-05-08T19:29:08.369Z,92334.72
2023-05-08T19:31:41.483Z,92339.19
2023-05-08T19:34:14.194Z,92346.25
2023-05-08T19:36:46.506Z,92343.81
2023-05-08T19:39:18.850Z,92340.44
2023-05-08T19:41:51.185Z,92339.06
2023-05-08T19:44:23.607Z,92341.84
2023-05-08T19:46:56.613Z,92336.53
2023-05-08T19:49:31.324Z,92340.16
2023-05-08T19:52:03.927Z,92347.69
2023-05-08T19:54:36.281Z,92345.22
2023-05-08T19:57:08.643Z,92346.88
2023-05-08T19:59:41.011Z,92345.59
2023-05-08T20:02:14.029Z,92343.34
2023-05-08T20:05:14.344Z,92343.88
2023-05-08T20:07:38.801Z,92341.78
2023-05-08T20:10:11.497Z,92340.91
2023-05-08T20:12:43.943Z,92342.81
2023-05-08T20:15:16.398Z,92339.41
2023-05-08T20:17:49.491Z,92338.66
2023-05-08T20:20:22.092Z,92341.56
2023-05-08T20:22:54.480Z,92338.28
2023-05-08T20:25:27.120Z,92337.22
2023-05-08T20:27:59.431Z,92331.94
2023-05-08T20:30:31.803Z,92331.63
2023-05-08T20:33:05.342Z,92331.44
2023-05-08T20:35:37.881Z,92322.06
2023-05-08T20:38:10.230Z,92317.13
2023-05-08T20:40:42.571Z,92317.78
2023-05-08T20:43:16.138Z,92319.44
2023-05-08T20:45:48.524Z,92329.53
2023-05-08T20:48:21.970Z,92321.69
2023-05-08T20:50:54.336Z,92320.63
2023-05-08T20:53:26.669Z,92315.69
2023-05-08T20:56:02.151Z,92313.00
2023-05-08T20:58:34.663Z,92308.09
2023-05-08T21:01:06.998Z,92315.25
2023-05-08T21:03:39.968Z,92318.34
2023-05-08T21:06:12.303Z,92305.81
2023-05-08T21:08:44.629Z,92309.19
2023-05-08T21:11:17.531Z,92301.03
2023-05-08T21:13:49.902Z,92301.75
2023-05-08T21:16:22.761Z,92305.16
2023-05-08T21:18:58.331Z,92305.63
2023-05-08T21:21:31.036Z,92304.38
2023-05-08T21:24:03.990Z,92294.91
2023-05-08T21:26:36.360Z,92301.06
2023-05-08T21:29:10.017Z,92302.72
2023-05-08T21:31:42.512Z,92304.25
2023-05-08T21:34:15.723Z,92308.97
2023-05-08T21:36:48.512Z,92291.09
2023-05-08T21:39:20.842Z,92299.66
2023-05-08T21:41:53.175Z,92306.53
2023-05-08T21:44:25.525Z,92301.81
2023-05-08T21:46:57.795Z,92304.16
2023-05-08T21:49:30.813Z,92306.25
2023-05-08T21:52:03.166Z,92311.13
2023-05-08T21:54:35.491Z,92320.03
2023-05-08T21:57:07.842Z,92303.41
2023-05-08T21:59:40.150Z,92305.63
2023-05-08T22:02:12.629Z,92304.38
2023-05-08T22:04:45.606Z,92307.38
2023-05-08T22:07:18.470Z,92301.41
2023-05-08T22:09:50.785Z,92295.03
2023-05-08T22:12:23.109Z,92291.53
2023-05-08T22:14:55.422Z,92285.84
2023-05-08T22:17:27.775Z,92287.84
2023-05-08T22:20:01.444Z,92286.41
2023-05-08T22:22:33.829Z,92287.56
2023-05-08T22:25:07.593Z,92291.44
2023-05-08T22:27:40.086Z,92295.72
2023-05-08T22:30:12.659Z,92304.31
2023-05-08T22:32:46.921Z,92299.97
2023-05-08T22:35:21.621Z,92304.91
2023-05-08T22:37:54.453Z,92312.03
2023-05-08T22:40:28.205Z,92310.13
2023-05-08T22:43:00.893Z,92308.66
2023-05-08T22:45:33.295Z,92315.03
2023-05-08T22:48:06.253Z,92311.66
2023-05-08T22:50:39.373Z,92309.81
2023-05-08T22:53:11.729Z,92314.03
2023-05-08T22:55:44.865Z,92320.59
2023-05-08T22:58:17.176Z,92312.41
2023-05-08T23:00:49.539Z,92319.25
2023-05-08T23:03:21.867Z,92314.91
2023-05-08T23:05:54.805Z,92313.63
2023-05-08T23:08:27.144Z,92311.59
2023-05-08T23:10:59.448Z,92308.31
2023-05-08T23:13:31.896Z,92307.06
2023-05-08T23:16:05.158Z,92303.75
2023-05-08T23:18:38.166Z,92309.50
2023-05-08T23:21:11.172Z,92308.25
2023-05-08T23:23:43.625Z,92310.38
2023-05-08T23:26:15.935Z,92313.38
2023-05-08T23:28:48.201Z,92311.66
2023-05-08T23:31:20.563Z,92306.03
2023-05-08T23:33:52.919Z,92300.63
2023-05-08T23:36:26.370Z,92293.84
2023-05-08T23:38:58.670Z,92298.09
2023-05-08T23:41:31.599Z,92287.75
2023-05-08T23:44:04.066Z,92287.84
2023-05-08T23:46:36.424Z,92286.59
2023-05-08T23:49:08.830Z,92285.25
2023-05-08T23:51:41.848Z,92279.16
2023-05-08T23:54:14.137Z,92279.94
2023-05-08T23:56:46.514Z,92286.72
2023-05-08T23:59:18.783Z,92278.81
